createdAt,value
2023-02-21T00:02:15.332Z,97672.41
2023-02-21T00:05:00.583Z,97688.97
2023-02-21T00:07:45.890Z,97686.25
2023-02-21T00:10:31.124Z,97698.13
2023-02-21T00:13:16.240Z,97703.97
2023-02-21T00:16:01.131Z,97702.31
2023-02-21T00:18:46.258Z,97717.88
2023-02-21T00:21:31.225Z,97725.13
2023-02-21T00:24:16.499Z,97725.94
2023-02-21T00:27:01.603Z,97734.13
2023-02-21T00:29:47.006Z,97738.84
2023-02-21T00:32:32.390Z,97743.16
2023-02-21T00:35:17.767Z,97748.88
2023-02-21T00:38:02.972Z,97750.06
2023-02-21T00:40:48.607Z,97754.63
2023-02-21T00:43:36.595Z,97751.84
2023-02-21T00:46:22.101Z,97756.66
2023-02-21T00:49:07.340Z,97748.63
2023-02-21T00:51:52.654Z,97743.38
2023-02-21T00:54:37.570Z,97745.34
2023-02-21T00:57:22.485Z,97746.56
2023-02-21T01:00:07.721Z,97744.69
2023-02-21T01:02:53.584Z,97744.38
2023-02-21T01:05:38.664Z,97737.75
2023-02-21T01:08:23.889Z,97741.41
2023-02-21T01:11:09.073Z,97737.16
2023-02-21T01:13:53.990Z,97723.22
2023-02-21T01:16:39.242Z,97718.78
2023-02-21T01:19:24.785Z,97725.03
2023-02-21T01:22:09.903Z,97717.84
2023-02-21T01:24:55.180Z,97709.59
2023-02-21T01:27:40.167Z,97698.81
2023-02-21T01:30:26.838Z,97701.75
2023-02-21T01:33:12.149Z,97693.88
2023-02-21T01:35:57.652Z,97689.59
2023-02-21T01:38:43.029Z,97683.72
2023-02-21T01:41:27.934Z,97680.78
2023-02-21T01:44:21.373Z,97671.28
2023-02-21T01:47:06.649Z,97669.97
2023-02-21T01:49:52.481Z,97660.78
2023-02-21T01:52:38.085Z,97648.66
2023-02-21T01:55:24.214Z,97654.91
2023-02-21T01:58:09.551Z,97652.78
2023-02-21T02:00:54.912Z,97640.81
2023-02-21T02:03:40.147Z,97636.88
2023-02-21T02:06:27.804Z,97623.88
2023-02-21T02:09:13.008Z,97621.09
2023-02-21T02:12:01.362Z,97612.91
2023-02-21T02:14:39.512Z,97613.09
2023-02-21T02:17:16.674Z,97612.25
2023-02-21T02:19:44.518Z,97623.25
2023-02-21T02:22:23.400Z,97609.97
2023-02-21T02:24:52.720Z,97614.88
2023-02-21T02:27:19.104Z,97610.94
2023-02-21T02:30:04.615Z,97611.63
2023-02-21T02:32:46.487Z,97619.16
2023-02-21T02:35:29.084Z,97618.16
2023-02-21T02:37:56.669Z,97616.19
2023-02-21T02:40:27.678Z,97613.41
2023-02-21T02:43:00.152Z,97612.56
2023-02-21T02:45:29.085Z,97607.66
2023-02-21T02:47:58.160Z,97610.13
2023-02-21T02:50:24.766Z,97603.72
2023-02-21T02:52:52.867Z,97598.81
2023-02-21T02:55:23.824Z,97601.75
2023-02-21T02:57:51.208Z,97600.94
2023-02-21T03:00:19.095Z,97600.94
2023-02-21T03:02:57.578Z,97607.34
2023-02-21T03:05:24.008Z,97602.44
2023-02-21T03:07:50.470Z,97601.28
2023-02-21T03:10:17.809Z,97598.81
2023-02-21T03:12:49.176Z,97601.59
2023-02-21T03:15:18.484Z,97597.16
2023-02-21T03:17:46.538Z,97597.81
2023-02-21T03:20:14.718Z,97588.47
2023-02-21T03:22:42.346Z,97590.94
2023-02-21T03:25:08.958Z,97582.56
2023-02-21T03:27:37.407Z,97586.16
2023-02-21T03:30:13.511Z,97581.56
2023-02-21T03:32:48.916Z,97585.34
2023-02-21T03:35:15.902Z,97585.03
2023-02-21T03:37:46.984Z,97586.66
2023-02-21T03:40:26.583Z,97591.59
2023-02-21T03:42:56.401Z,97585.00
2023-02-21T03:45:23.880Z,97591.59
2023-02-21T03:48:09.200Z,97591.44
2023-02-21T03:50:37.380Z,97589.25
2023-02-21T03:53:04.034Z,97587.97
2023-02-21T03:55:32.081Z,97587.63
2023-02-21T03:58:01.270Z,97579.09
2023-02-21T04:00:31.349Z,97588.63
2023-02-21T04:02:58.044Z,97588.63
2023-02-21T04:05:31.997Z,97592.72
2023-02-21T04:07:59.458Z,97590.25
2023-02-21T04:10:26.702Z,97592.22
2023-02-21T04:12:54.693Z,97593.56
2023-02-21T04:15:21.684Z,97600.09
2023-02-21T04:17:48.223Z,97593.38
2023-02-21T04:20:15.285Z,97598.13
2023-02-21T04:22:54.545Z,97601.09
2023-02-21T04:25:28.628Z,97597.47
2023-02-21T04:28:01.573Z,97602.41
2023-02-21T04:30:28.115Z,97608.97
2023-02-21T04:32:54.881Z,97606.00
2023-02-21T04:35:21.376Z,97602.19
2023-02-21T04:37:48.191Z,97595.16
2023-02-21T04:40:14.916Z,97592.88
2023-02-21T04:42:41.408Z,97591.88
2023-02-21T04:45:07.968Z,97590.75
2023-02-21T04:47:36.194Z,97590.41
2023-02-21T04:50:02.781Z,97589.56
2023-02-21T04:52:29.263Z,97593.47
2023-02-21T04:54:55.825Z,97581.69
2023-02-21T04:57:22.270Z,97582.31
2023-02-21T04:59:48.772Z,97573.31
2023-02-21T05:02:15.216Z,97580.66
2023-02-21T05:04:43.227Z,97579.81
2023-02-21T05:07:09.775Z,97576.75
2023-02-21T05:09:36.253Z,97565.59
2023-02-21T05:12:02.707Z,97561.69
2023-02-21T05:14:29.198Z,97567.25
2023-02-21T05:16:55.652Z,97574.16
2023-02-21T05:19:28.134Z,97570.88
2023-02-21T05:21:58.234Z,97572.50
2023-02-21T05:24:24.926Z,97572.50
2023-02-21T05:26:51.533Z,97569.03
2023-02-21T05:29:18.658Z,97572.84
2023-02-21T05:31:45.447Z,97567.75
2023-02-21T05:34:11.911Z,97575.13
2023-02-21T05:36:38.395Z,97574.50
2023-02-21T05:39:04.862Z,97566.63
2023-02-21T05:41:31.589Z,97564.53
2023-02-21T05:43:58.058Z,97569.25
2023-02-21T05:46:25.631Z,97570.09
2023-02-21T05:48:52.230Z,97572.72
2023-02-21T05:51:18.770Z,97579.09
2023-02-21T05:53:45.381Z,97582.38
2023-02-21T05:56:11.911Z,97589.59
2023-02-21T05:58:38.519Z,97597.47
2023-02-21T06:01:05.079Z,97599.78
2023-02-21T06:03:31.631Z,97604.78
2023-02-21T06:05:58.125Z,97607.28
2023-02-21T06:08:25.368Z,97604.13
2023-02-21T06:10:51.873Z,97607.91
2023-02-21T06:13:18.322Z,97616.16
2023-02-21T06:15:44.855Z,97620.41
2023-02-21T06:18:14.738Z,97622.00
2023-02-21T06:20:41.222Z,97632.50
2023-02-21T06:23:07.754Z,97637.72
2023-02-21T06:25:34.240Z,97630.50
2023-02-21T06:28:00.690Z,97650.53
2023-02-21T06:30:27.229Z,97645.75
2023-02-21T06:36:40.404Z,97656.25
2023-02-21T06:39:08.113Z,97662.63
2023-02-21T06:41:34.592Z,97668.56
2023-02-21T06:44:01.075Z,97670.16
2023-02-21T06:46:28.331Z,97680.03
2023-02-21T06:48:55.004Z,97678.06
2023-02-21T06:51:21.848Z,97686.00
2023-02-21T06:53:51.386Z,97688.31
2023-02-21T06:56:17.903Z,97689.78
2023-02-21T06:58:44.405Z,97691.09
2023-02-21T07:01:11.058Z,97683.19
2023-02-21T07:03:40.918Z,97694.53
2023-02-21T07:06:07.537Z,97698.63
2023-02-21T07:08:34.073Z,97692.22
2023-02-21T07:11:00.588Z,97689.47
2023-02-21T07:13:27.040Z,97697.34
2023-02-21T07:15:53.586Z,97695.53
2023-02-21T07:18:20.083Z,97696.84
2023-02-21T07:20:46.646Z,97698.16
2023-02-21T07:23:13.201Z,97699.31
2023-02-21T07:25:39.805Z,97724.47
2023-02-21T07:28:06.296Z,97721.84
2023-02-21T07:30:32.974Z,97727.41
2023-02-21T07:32:59.461Z,97723.63
2023-02-21T07:35:25.987Z,97722.81
2023-02-21T07:37:52.482Z,97724.47
2023-02-21T07:40:18.926Z,97728.75
2023-02-21T07:42:45.517Z,97720.41
2023-02-21T07:45:12.105Z,97725.16
2023-02-21T07:47:38.877Z,97736.66
2023-02-21T07:50:05.529Z,97732.22
2023-02-21T07:52:32.071Z,97734.97
2023-02-21T07:54:58.573Z,97737.63
2023-02-21T07:57:25.084Z,97740.75
2023-02-21T07:59:52.040Z,97742.22
2023-02-21T08:02:18.530Z,97743.84
2023-02-21T08:04:45.014Z,97757.66
2023-02-21T08:07:11.536Z,97769.03
2023-02-21T08:09:38.357Z,97769.03
2023-02-21T08:12:04.987Z,97760.97
2023-02-21T08:14:31.487Z,97773.09
2023-02-21T08:16:58.032Z,97768.53
2023-02-21T08:19:24.557Z,97770.53
2023-02-21T08:21:51.200Z,97774.78
2023-02-21T08:24:17.830Z,97773.13
2023-02-21T08:26:45.584Z,97772.81
2023-02-21T08:29:12.741Z,97777.41
2023-02-21T08:31:39.718Z,97779.03
2023-02-21T08:34:06.375Z,97788.22
2023-02-21T08:36:33.406Z,97778.72
2023-02-21T08:38:59.870Z,97783.66
2023-02-21T08:41:26.354Z,97772.47
2023-02-21T08:43:52.800Z,97769.53
2023-02-21T08:46:19.307Z,97770.09
2023-02-21T08:48:46.161Z,97766.19
2023-02-21T08:51:13.612Z,97770.50
2023-02-21T08:53:40.343Z,97772.19
2023-02-21T08:56:06.861Z,97777.47
2023-02-21T08:58:33.475Z,97783.84
2023-02-21T09:00:59.962Z,97783.00
2023-02-21T09:03:26.514Z,97777.47
2023-02-21T09:05:53.051Z,97791.06
2023-02-21T09:08:20.867Z,97783.09
2023-02-21T09:10:47.908Z,97781.88
2023-02-21T09:13:14.534Z,97783.56
2023-02-21T09:15:41.056Z,97791.66
2023-02-21T09:18:07.578Z,97784.91
2023-02-21T09:20:34.110Z,97780.81
2023-02-21T09:23:00.574Z,97781.28
2023-02-21T09:25:27.075Z,97776.22
2023-02-21T09:27:54.820Z,97780.31
2023-02-21T09:30:23.913Z,97770.50
2023-02-21T09:32:50.671Z,97763.59
2023-02-21T09:35:17.302Z,97765.41
2023-02-21T09:37:44.485Z,97770.16
2023-02-21T09:40:15.774Z,97768.00
2023-02-21T09:42:42.329Z,97767.84
2023-02-21T09:45:15.708Z,97772.47
2023-02-21T09:47:42.203Z,97774.78
2023-02-21T09:50:15.463Z,97781.69
2023-02-21T09:52:42.444Z,97776.75
2023-02-21T09:55:30.671Z,97773.31
2023-02-21T09:57:57.568Z,97775.47
2023-02-21T10:00:34.037Z,97780.88
2023-02-21T10:03:11.167Z,97780.72
2023-02-21T10:05:40.666Z,97779.25
2023-02-21T10:08:13.211Z,97788.28
2023-02-21T10:10:55.441Z,97776.44
2023-02-21T10:13:21.868Z,97781.72
2023-02-21T10:15:48.364Z,97781.06
2023-02-21T10:18:33.382Z,97788.59
2023-02-21T10:21:02.514Z,97782.06
2023-02-21T10:23:32.556Z,97784.34
2023-02-21T10:26:02.769Z,97781.72
2023-02-21T10:28:29.269Z,97788.28
2023-02-21T10:30:57.732Z,97788.28
2023-02-21T10:33:24.547Z,97786.81
2023-02-21T10:35:53.729Z,97776.13
2023-02-21T10:38:20.626Z,97782.69
2023-02-21T10:40:48.590Z,97773.97
2023-02-21T10:43:22.659Z,97768.72
2023-02-21T10:46:07.811Z,97779.88
2023-02-21T10:48:37.703Z,97769.53
2023-02-21T10:51:05.411Z,97765.91
2023-02-21T10:53:32.879Z,97760.34
2023-02-21T10:56:14.904Z,97756.22
2023-02-21T10:58:47.573Z,97755.06
2023-02-21T11:01:37.453Z,97756.66
2023-02-21T11:04:08.156Z,97748.97
2023-02-21T11:06:36.718Z,97747.34
2023-02-21T11:09:03.657Z,97750.59
2023-02-21T11:11:35.012Z,97739.25
2023-02-21T11:14:22.406Z,97740.25
2023-02-21T11:17:04.902Z,97732.72
2023-02-21T11:19:41.440Z,97730.41
2023-02-21T11:22:09.205Z,97736.81
2023-02-21T11:25:08.166Z,97727.28
2023-02-21T11:27:35.363Z,97721.31
2023-02-21T11:30:02.801Z,97726.34
2023-02-21T11:32:36.902Z,97711.06
2023-02-21T11:35:04.456Z,97710.06
2023-02-21T11:37:32.396Z,97700.00
2023-02-21T11:40:00.999Z,97689.63
2023-02-21T11:42:31.255Z,97688.72
2023-02-21T11:45:16.416Z,97673.50
2023-02-21T11:47:44.506Z,97664.63
2023-02-21T11:50:20.081Z,97662.97
2023-02-21T11:52:46.518Z,97658.06
2023-02-21T11:55:14.351Z,97651.03
2023-02-21T11:57:47.014Z,97646.28
2023-02-21T12:00:25.695Z,97640.28
2023-02-21T12:03:14.867Z,97636.28
2023-02-21T12:05:45.236Z,97637.81
2023-02-21T12:08:11.716Z,97639.31
2023-02-21T12:10:44.402Z,97636.72
2023-02-21T12:13:32.696Z,97640.34
2023-02-21T12:16:05.148Z,97637.19
2023-02-21T12:18:40.689Z,97636.28
2023-02-21T12:21:22.220Z,97624.81
2023-02-21T12:24:17.839Z,97620.56
2023-02-21T12:26:50.450Z,97619.44
2023-02-21T12:29:38.305Z,97610.88
2023-02-21T12:32:08.040Z,97609.44
2023-02-21T12:34:53.484Z,97602.47
2023-02-21T12:37:29.504Z,97612.53
2023-02-21T12:39:55.930Z,97601.63
2023-02-21T12:42:22.418Z,97599.75
2023-02-21T12:44:55.622Z,97591.44
2023-02-21T12:47:42.914Z,97585.06
2023-02-21T12:50:13.760Z,97578.69
2023-02-21T12:52:54.793Z,97572.00
2023-02-21T12:55:21.204Z,97566.81
2023-02-21T12:58:06.373Z,97559.94
2023-02-21T13:00:35.190Z,97564.75
2023-02-21T13:03:04.964Z,97563.44
2023-02-21T13:05:42.594Z,97554.50
2023-02-21T13:08:29.349Z,97550.19
2023-02-21T13:11:01.632Z,97538.53
2023-02-21T13:13:34.188Z,97526.47
2023-02-21T13:16:04.769Z,97528.69
2023-02-21T13:18:39.143Z,97525.25
2023-02-21T13:21:23.969Z,97520.63
2023-02-21T13:24:09.645Z,97520.63
2023-02-21T13:26:59.965Z,97507.75
2023-02-21T13:29:30.869Z,97508.53
2023-02-21T13:31:59.424Z,97520.97
2023-02-21T13:34:26.917Z,97514.38
2023-02-21T13:36:53.461Z,97505.09
2023-02-21T13:39:31.833Z,97503.81
2023-02-21T13:42:08.615Z,97507.03
2023-02-21T13:44:39.034Z,97497.34
2023-02-21T13:47:05.493Z,97499.81
2023-02-21T13:49:53.650Z,97493.56
2023-02-21T13:52:20.178Z,97497.66
2023-02-21T13:55:05.454Z,97500.13
2023-02-21T13:57:32.357Z,97492.94
2023-02-21T13:59:58.867Z,97487.84
2023-02-21T14:02:31.165Z,97496.31
2023-02-21T14:04:57.673Z,97489.59
2023-02-21T14:07:40.110Z,97498.03
2023-02-21T14:10:14.183Z,97490.34
2023-02-21T14:12:43.518Z,97489.34
2023-02-21T14:15:10.357Z,97494.28
2023-02-21T14:17:36.809Z,97494.28
2023-02-21T14:20:06.001Z,97500.38
2023-02-21T14:22:32.546Z,97499.84
2023-02-21T14:25:15.635Z,97497.47
2023-02-21T14:27:42.145Z,97489.03
2023-02-21T14:30:11.745Z,97492.84
2023-02-21T14:32:41.105Z,97474.19
2023-02-21T14:35:34.142Z,97478.38
2023-02-21T14:38:20.826Z,97471.47
2023-02-21T14:41:06.027Z,97475.19
2023-02-21T14:43:37.782Z,97470.28
2023-02-21T14:46:20.644Z,97474.09
2023-02-21T14:48:50.790Z,97470.19
2023-02-21T14:51:39.635Z,97470.19
2023-02-21T14:54:06.177Z,97466.84
2023-02-21T14:56:35.752Z,97478.47
2023-02-21T14:59:21.006Z,97478.16
2023-02-21T15:02:06.411Z,97481.44
2023-02-21T15:04:35.126Z,97477.59
2023-02-21T15:07:10.474Z,97484.25
2023-02-21T15:09:37.153Z,97483.72
2023-02-21T15:12:05.632Z,97488.22
2023-02-21T15:14:33.311Z,97496.91
2023-02-21T15:17:12.148Z,97496.06
2023-02-21T15:19:38.796Z,97491.00
2023-02-21T15:22:17.797Z,97496.78
2023-02-21T15:25:00.418Z,97497.19
2023-02-21T15:27:26.894Z,97498.53
2023-02-21T15:30:04.573Z,97489.78
2023-02-21T15:32:31.315Z,97485.25
2023-02-21T15:34:57.814Z,97491.66
2023-02-21T15:37:24.856Z,97491.38
2023-02-21T15:39:56.467Z,97488.75
2023-02-21T15:42:22.983Z,97496.13
2023-02-21T15:44:54.970Z,97493.63
2023-02-21T15:47:22.221Z,97495.28
2023-02-21T15:50:14.727Z,97495.69
2023-02-21T15:52:43.621Z,97493.06
2023-02-21T15:55:16.333Z,97485.44
2023-02-21T15:57:42.839Z,97480.19
2023-02-21T16:00:17.535Z,97473.66
2023-02-21T16:02:44.131Z,97474.25
2023-02-21T16:05:26.883Z,97476.97
2023-02-21T16:07:56.290Z,97467.88
2023-02-21T16:10:23.457Z,97468.25
2023-02-21T16:12:59.922Z,97472.03
2023-02-21T16:15:30.516Z,97468.88
2023-02-21T16:18:03.366Z,97477.06
2023-02-21T16:20:33.536Z,97478.75
2023-02-21T16:23:19.000Z,97471.34
2023-02-21T16:26:04.342Z,97476.34
2023-02-21T16:28:30.981Z,97470.88
2023-02-21T16:30:59.139Z,97476.50
2023-02-21T16:33:26.240Z,97479.53
2023-02-21T16:35:52.748Z,97484.72
2023-02-21T16:38:19.985Z,97485.91
2023-02-21T16:40:46.772Z,97482.31
2023-02-21T16:43:23.412Z,97488.88
2023-02-21T16:45:51.510Z,97484.13
2023-02-21T16:48:22.334Z,97482.50
2023-02-21T16:50:49.121Z,97480.03
2023-02-21T16:53:15.939Z,97485.13
2023-02-21T16:55:42.753Z,97480.63
2023-02-21T16:58:16.178Z,97493.59
2023-02-21T17:00:42.666Z,97498.22
2023-02-21T17:03:09.149Z,97508.47
2023-02-21T17:05:36.005Z,97524.13
2023-02-21T17:08:02.573Z,97517.56
2023-02-21T17:10:29.467Z,97520.06
2023-02-21T17:12:55.967Z,97540.91
2023-02-21T17:15:23.771Z,97547.88
2023-02-21T17:17:53.554Z,97559.34
2023-02-21T17:20:20.556Z,97558.94
2023-02-21T17:22:48.416Z,97557.88
2023-02-21T17:25:15.135Z,97554.19
2023-02-21T17:27:41.629Z,97576.94
2023-02-21T17:30:08.792Z,97577.97
2023-02-21T17:32:35.406Z,97586.31
2023-02-21T17:35:01.963Z,97599.31
2023-02-21T17:37:28.593Z,97595.19
2023-02-21T17:39:55.453Z,97608.94
2023-02-21T17:42:22.016Z,97629.00
2023-02-21T17:44:50.485Z,97626.88
2023-02-21T17:47:18.629Z,97632.78
2023-02-21T17:49:45.100Z,97637.41
2023-02-21T17:52:11.749Z,97642.44
2023-02-21T17:54:38.213Z,97653.44
2023-02-21T17:57:06.720Z,97664.06
2023-02-21T17:59:33.254Z,97660.44
2023-02-21T18:01:59.927Z,97680.97
2023-02-21T18:04:26.444Z,97686.09
2023-02-21T18:06:52.929Z,97688.59
2023-02-21T18:09:19.536Z,97687.84
2023-02-21T18:11:49.698Z,97700.00
2023-02-21T18:14:16.283Z,97703.78
2023-02-21T18:16:43.184Z,97729.94
2023-02-21T18:19:09.789Z,97733.09
2023-02-21T18:21:41.030Z,97724.22
2023-02-21T18:24:08.509Z,97721.94
2023-02-21T18:26:35.063Z,97720.44
2023-02-21T18:29:01.595Z,97705.50
2023-02-21T18:31:28.065Z,97708.25
2023-02-21T18:33:54.608Z,97714.72
2023-02-21T18:36:21.098Z,97708.72
2023-02-21T18:38:48.092Z,97711.47
2023-02-21T18:41:16.513Z,97712.06
2023-02-21T18:43:44.105Z,97724.66
2023-02-21T18:46:11.287Z,97745.25
2023-02-21T18:48:37.920Z,97752.69
2023-02-21T18:51:04.557Z,97758.28
2023-02-21T18:53:31.258Z,97760.25
2023-02-21T18:55:57.933Z,97764.84
2023-02-21T18:58:24.521Z,97762.19
2023-02-21T19:00:52.157Z,97766.00
2023-02-21T19:03:18.762Z,97757.34
2023-02-21T19:05:45.284Z,97759.66
2023-02-21T19:08:11.830Z,97749.09
2023-02-21T19:10:38.403Z,97746.38
2023-02-21T19:13:05.430Z,97739.97
2023-02-21T19:15:31.892Z,97755.00
2023-02-21T19:17:58.821Z,97764.38
2023-02-21T19:20:25.357Z,97767.75
2023-02-21T19:22:52.555Z,97770.03
2023-02-21T19:25:19.169Z,97771.91
2023-02-21T19:27:45.744Z,97784.38
2023-02-21T19:30:12.745Z,97783.47
2023-02-21T19:32:39.510Z,97795.34
2023-02-21T19:35:06.084Z,97801.47
2023-02-21T19:37:32.607Z,97798.34
2023-02-21T19:39:59.079Z,97803.25
2023-02-21T19:42:25.565Z,97812.34
2023-02-21T19:44:52.057Z,97836.69
2023-02-21T19:47:18.506Z,97837.84
2023-02-21T19:49:46.536Z,97850.78
2023-02-21T19:52:13.053Z,97865.63
2023-02-21T19:54:39.577Z,97876.91
2023-02-21T19:57:06.082Z,97883.78
2023-02-21T19:59:33.992Z,97875.44
2023-02-21T20:02:00.884Z,97886.03
2023-02-21T20:04:28.785Z,97874.00
2023-02-21T20:06:58.757Z,97867.47
2023-02-21T20:09:25.549Z,97863.38
2023-02-21T20:11:52.084Z,97862.78
2023-02-21T20:14:18.929Z,97849.84
2023-02-21T20:16:46.468Z,97854.59
2023-02-21T20:19:13.147Z,97853.78
2023-02-21T20:21:39.664Z,97859.22
2023-02-21T20:24:07.336Z,97871.44
2023-02-21T20:26:33.892Z,97867.13
2023-02-21T20:29:00.401Z,97857.94
2023-02-21T20:31:30.353Z,97877.63
2023-02-21T20:33:57.246Z,97883.72
2023-02-21T20:36:30.363Z,97885.56
2023-02-21T20:38:56.848Z,97898.13
2023-02-21T20:41:23.801Z,97894.63
2023-02-21T20:43:50.340Z,97894.38
2023-02-21T20:46:21.002Z,97904.88
2023-02-21T20:48:47.644Z,97901.63
2023-02-21T20:51:14.424Z,97909.34
2023-02-21T20:53:46.136Z,97895.72
2023-02-21T20:56:13.500Z,97892.47
2023-02-21T20:58:40.270Z,97913.81
2023-02-21T21:01:06.801Z,97919.25
2023-02-21T21:03:35.927Z,97917.91
2023-02-21T21:06:02.875Z,97938.50
2023-02-21T21:08:29.394Z,97930.13
2023-02-21T21:10:57.430Z,97941.38
2023-02-21T21:13:24.011Z,97961.50
2023-02-21T21:15:50.590Z,97955.44
2023-02-21T21:18:17.100Z,97959.25
2023-02-21T21:20:43.565Z,97958.19
2023-02-21T21:23:10.054Z,97968.91
2023-02-21T21:25:36.713Z,97968.09
2023-02-21T21:28:06.357Z,97970.63
2023-02-21T21:30:33.251Z,97971.50
2023-02-21T21:33:00.601Z,97962.66
2023-02-21T21:35:30.197Z,97965.44
2023-02-21T21:37:57.161Z,97961.81
2023-02-21T21:40:24.314Z,97961.75
2023-02-21T21:42:52.083Z,97955.13
2023-02-21T21:45:19.593Z,97942.19
2023-02-21T21:47:46.555Z,97942.31
2023-02-21T21:50:15.589Z,97952.34
2023-02-21T21:52:45.607Z,97952.16
2023-02-21T21:55:16.361Z,97939.84
2023-02-21T21:57:42.839Z,97952.44
2023-02-21T22:00:21.791Z,97950.94
2023-02-21T22:02:49.077Z,97949.31
2023-02-21T22:05:15.744Z,97958.69
2023-02-21T22:07:42.528Z,97970.78
2023-02-21T22:10:11.506Z,97978.19
2023-02-21T22:12:38.658Z,97982.34
2023-02-21T22:15:05.414Z,97986.47
2023-02-21T22:17:32.212Z,97978.28
2023-02-21T22:19:58.762Z,97977.78
2023-02-21T22:22:25.227Z,97989.75
2023-02-21T22:24:51.859Z,97996.34
2023-02-21T22:27:18.370Z,97988.56
2023-02-21T22:29:45.690Z,97995.66
2023-02-21T22:32:12.646Z,97980.25
2023-02-21T22:34:39.567Z,97995.69
2023-02-21T22:37:06.060Z,97992.84
2023-02-21T22:39:32.542Z,97998.38
2023-02-21T22:41:59.004Z,98007.94
2023-02-21T22:44:25.487Z,98006.09
2023-02-21T22:46:58.728Z,98012.41
2023-02-21T22:49:25.953Z,98013.75
2023-02-21T22:51:52.499Z,98015.25
2023-02-21T22:54:19.050Z,98016.44
2023-02-21T22:56:51.603Z,98008.88
2023-02-21T22:59:24.244Z,98017.22
2023-02-21T23:01:50.894Z,98010.59
2023-02-21T23:04:25.505Z,98004.16
2023-02-21T23:06:53.727Z,98010.34
2023-02-21T23:09:20.197Z,98027.00
2023-02-21T23:11:49.123Z,98028.69
2023-02-21T23:14:15.875Z,98036.75
2023-02-21T23:16:43.314Z,98039.66
2023-02-21T23:19:09.832Z,98059.94
2023-02-21T23:21:37.817Z,98068.56
2023-02-21T23:24:04.874Z,98079.66
2023-02-21T23:26:31.368Z,98081.56
2023-02-21T23:28:57.820Z,98089.03
2023-02-21T23:31:24.339Z,98097.09
2023-02-21T23:33:53.298Z,98107.75
2023-02-21T23:36:22.729Z,98103.72
2023-02-21T23:38:50.115Z,98108.47
2023-02-21T23:41:17.024Z,98097.44
2023-02-21T23:43:46.590Z,98088.16
2023-02-21T23:46:17.380Z,98093.97
2023-02-21T23:48:45.085Z,98083.03
2023-02-21T23:51:11.623Z,98098.09
2023-02-21T23:53:38.370Z,98102.53
2023-02-21T23:56:05.870Z,98104.91
2023-02-21T23:58:32.373Z,98103.69
